createdAt,value
2018-11-23T00:02:24.461Z,30.53
2018-11-23T00:04:51.874Z,29.40
2018-11-23T00:07:19.274Z,28.47
2018-11-23T00:09:46.701Z,31.77
2018-11-23T00:12:14.091Z,32.30
2018-11-23T00:14:41.498Z,31.93
2018-11-23T00:17:08.886Z,31.93
2018-11-23T00:19:36.289Z,31.93
2018-11-23T00:22:03.809Z,32.67
2018-11-23T00:24:31.214Z,32.70
2018-11-23T00:26:58.600Z,33.03
2018-11-23T00:29:26.026Z,33.10
2018-11-23T00:31:53.425Z,33.00
2018-11-23T00:34:20.839Z,31.23
2018-11-23T00:36:48.252Z,32.03
2018-11-23T00:39:15.657Z,31.30
2018-11-23T00:41:43.054Z,33.70
2018-11-23T00:44:10.503Z,34.73
2018-11-23T00:46:37.895Z,35.83
2018-11-23T00:49:05.596Z,37.30
2018-11-23T00:51:32.994Z,34.40
2018-11-23T00:54:00.390Z,32.63
2018-11-23T00:56:27.788Z,32.83
2018-11-23T00:58:55.221Z,30.87
2018-11-23T01:01:22.650Z,32.47
2018-11-23T01:03:50.038Z,32.73
2018-11-23T01:06:17.470Z,35.90
2018-11-23T01:08:44.875Z,35.23
2018-11-23T01:11:12.306Z,34.87
2018-11-23T01:13:39.705Z,33.27
2018-11-23T01:16:07.118Z,34.33
2018-11-23T01:18:34.516Z,34.30
2018-11-23T01:21:01.939Z,34.10
2018-11-23T01:23:29.350Z,35.73
2018-11-23T01:25:56.754Z,33.80
2018-11-23T01:28:24.164Z,34.50
2018-11-23T01:30:51.570Z,34.30
2018-11-23T01:33:18.959Z,33.30
2018-11-23T01:35:46.370Z,33.73
2018-11-23T01:38:13.761Z,32.03
2018-11-23T01:40:41.194Z,33.00
2018-11-23T01:43:08.591Z,32.57
2018-11-23T01:45:36.039Z,32.33
2018-11-23T01:48:03.442Z,33.27
2018-11-23T01:50:30.846Z,31.27
2018-11-23T01:52:58.549Z,32.90
2018-11-23T01:55:26.444Z,33.10
2018-11-23T01:57:53.854Z,29.10
2018-11-23T02:00:22.586Z,30.20
2018-11-23T02:02:50.738Z,27.60
2018-11-23T02:05:18.162Z,28.87
2018-11-23T02:07:45.554Z,30.53
2018-11-23T02:10:14.355Z,29.17
2018-11-23T02:12:41.786Z,29.40
2018-11-23T02:15:10.884Z,27.90
2018-11-23T02:17:38.285Z,28.53
2018-11-23T02:20:07.918Z,28.43
2018-11-23T02:22:35.323Z,28.90
2018-11-23T02:25:02.766Z,28.20
2018-11-23T02:27:30.178Z,26.43
2018-11-23T02:29:57.646Z,28.53
2018-11-23T02:32:25.063Z,28.27
2018-11-23T02:34:52.449Z,26.73
2018-11-23T02:37:19.858Z,28.20
2018-11-23T02:39:47.250Z,27.40
2018-11-23T02:42:14.684Z,28.20
2018-11-23T02:44:42.086Z,28.67
2018-11-23T02:47:09.570Z,26.90
2018-11-23T02:49:37.255Z,28.87
2018-11-23T02:52:04.992Z,26.77
2018-11-23T02:54:32.380Z,28.50
2018-11-23T02:56:59.786Z,28.07
2018-11-23T02:59:27.170Z,28.60
2018-11-23T03:01:54.590Z,30.10
2018-11-23T03:04:22.014Z,29.37
2018-11-23T03:06:49.444Z,29.70
2018-11-23T03:09:16.834Z,27.47
2018-11-23T03:11:44.305Z,29.33
2018-11-23T03:14:11.673Z,28.83
2018-11-23T03:16:39.078Z,28.57
2018-11-23T03:19:07.445Z,27.33
2018-11-23T03:21:34.854Z,26.97
2018-11-23T03:24:02.243Z,27.17
2018-11-23T03:26:29.657Z,28.63
2018-11-23T03:28:57.038Z,27.50
2018-11-23T03:31:25.230Z,30.33
2018-11-23T03:33:53.074Z,30.00
2018-11-23T03:36:21.068Z,28.83
2018-11-23T03:38:49.116Z,27.10
2018-11-23T03:41:16.599Z,28.30
2018-11-23T03:43:44.138Z,27.87
2018-11-23T03:46:11.566Z,28.03
2018-11-23T03:48:38.958Z,27.87
2018-11-23T03:51:06.526Z,29.37
2018-11-23T03:53:33.907Z,29.33
2018-11-23T03:56:01.301Z,27.97
2018-11-23T03:58:28.719Z,26.83
2018-11-23T04:00:56.117Z,26.77
2018-11-23T04:03:23.527Z,27.70
2018-11-23T04:05:50.959Z,27.77
2018-11-23T04:08:18.394Z,26.97
2018-11-23T04:10:45.785Z,28.70
2018-11-23T04:13:13.194Z,26.63
2018-11-23T04:15:40.589Z,24.90
2018-11-23T04:18:08.016Z,29.07
2018-11-23T04:20:35.406Z,28.53
2018-11-23T04:23:02.842Z,26.17
2018-11-23T04:25:30.237Z,27.60
2018-11-23T04:27:57.710Z,26.23
2018-11-23T04:30:25.142Z,26.63
2018-11-23T04:32:52.548Z,27.77
2018-11-23T04:35:19.972Z,26.60
2018-11-23T04:37:47.795Z,27.50
2018-11-23T04:40:16.250Z,27.27
2018-11-23T04:42:43.670Z,27.17
2018-11-23T04:45:11.470Z,28.07
2018-11-23T04:47:39.254Z,26.63
2018-11-23T04:50:08.283Z,26.77
2018-11-23T04:52:35.685Z,26.73
2018-11-23T04:55:03.162Z,27.70
2018-11-23T04:57:30.577Z,26.47
2018-11-23T04:59:58.255Z,31.07
2018-11-23T05:02:25.734Z,28.30
2018-11-23T05:04:53.120Z,26.63
2018-11-23T05:07:20.859Z,28.93
2018-11-23T05:09:48.250Z,27.37
2018-11-23T05:12:15.676Z,27.17
2018-11-23T05:14:43.058Z,27.00
2018-11-23T05:17:10.472Z,26.40
2018-11-23T05:19:37.863Z,27.60
2018-11-23T05:22:05.485Z,28.93
2018-11-23T05:24:32.878Z,26.87
2018-11-23T05:27:00.286Z,25.40
2018-11-23T05:29:27.729Z,26.93
2018-11-23T05:31:55.202Z,27.37
2018-11-23T05:34:22.631Z,26.23
2018-11-23T05:36:50.042Z,28.13
2018-11-23T05:39:17.479Z,28.30
2018-11-23T05:41:44.871Z,27.23
2018-11-23T05:44:12.310Z,27.43
2018-11-23T05:46:39.689Z,26.40
2018-11-23T05:49:07.098Z,28.23
2018-11-23T05:51:34.509Z,29.47
2018-11-23T05:54:01.931Z,28.70
2018-11-23T05:56:29.314Z,29.40
2018-11-23T05:58:56.745Z,27.27
2018-11-23T06:01:24.159Z,28.33
2018-11-23T06:03:51.566Z,27.57
2018-11-23T06:06:18.945Z,30.40
2018-11-23T06:08:46.350Z,29.83
2018-11-23T06:11:13.735Z,27.93
2018-11-23T06:13:41.142Z,27.90
2018-11-23T06:16:08.530Z,28.53
2018-11-23T06:18:35.941Z,26.67
2018-11-23T06:21:03.358Z,27.30
2018-11-23T06:23:30.770Z,28.13
2018-11-23T06:26:17.173Z,27.03
2018-11-23T06:28:44.584Z,25.17
2018-11-23T06:31:12.478Z,25.83
2018-11-23T06:33:44.158Z,25.67
2018-11-23T06:36:11.550Z,26.63
2018-11-23T06:38:39.032Z,25.70
2018-11-23T06:41:10.438Z,27.60
2018-11-23T06:43:34.775Z,30.53
2018-11-23T06:46:03.194Z,28.80
2018-11-23T06:48:30.615Z,28.83
2018-11-23T06:50:58.022Z,28.17
2018-11-23T06:53:25.750Z,28.40
2018-11-23T06:55:53.309Z,29.90
2018-11-23T06:58:20.746Z,30.60
2018-11-23T07:00:48.171Z,29.67
2018-11-23T07:03:15.586Z,31.53
2018-11-23T07:05:43.001Z,30.03
2018-11-23T07:08:11.114Z,30.90
2018-11-23T07:10:38.498Z,30.93
2018-11-23T07:13:06.194Z,30.77
2018-11-23T07:15:33.622Z,29.90
2018-11-23T07:18:01.030Z,30.30
2018-11-23T07:20:28.454Z,30.47
2018-11-23T07:22:55.986Z,31.07
2018-11-23T07:25:23.426Z,28.37
2018-11-23T07:27:50.896Z,30.33
2018-11-23T07:30:20.058Z,31.17
2018-11-23T07:32:47.459Z,32.50
2018-11-23T07:35:15.377Z,33.93
2018-11-23T07:37:43.126Z,35.00
2018-11-23T07:40:23.402Z,34.07
2018-11-23T07:42:51.139Z,35.30
2018-11-23T07:45:18.563Z,33.80
2018-11-23T07:47:46.018Z,32.13
2018-11-23T07:50:13.446Z,32.90
2018-11-23T07:52:40.850Z,32.97
2018-11-23T07:55:09.674Z,35.77
2018-11-23T07:57:37.113Z,35.47
2018-11-23T08:00:10.735Z,34.53
2018-11-23T08:02:38.134Z,35.23
2018-11-23T08:05:07.638Z,36.80
2018-11-23T08:07:35.069Z,37.50
2018-11-23T08:10:02.022Z,39.70
2018-11-23T08:12:29.417Z,36.53
2018-11-23T08:14:57.006Z,36.37
2018-11-23T08:17:24.412Z,37.53
2018-11-23T08:19:51.879Z,36.43
2018-11-23T08:22:19.326Z,37.00
2018-11-23T08:24:46.763Z,37.80
2018-11-23T08:27:14.170Z,37.63
2018-11-23T08:29:41.592Z,36.77
2018-11-23T08:32:09.053Z,35.80
2018-11-23T08:34:36.557Z,44.63
2018-11-23T08:37:04.005Z,39.13
2018-11-23T08:39:31.430Z,37.53
2018-11-23T08:41:58.821Z,38.63
2018-11-23T08:44:26.244Z,40.03
2018-11-23T08:46:53.635Z,40.00
2018-11-23T08:49:21.026Z,41.03
2018-11-23T08:51:48.443Z,40.70
2018-11-23T08:54:15.850Z,39.83
2018-11-23T08:56:43.338Z,38.33
2018-11-23T08:59:10.738Z,38.10
2018-11-23T09:01:38.166Z,39.10
2018-11-23T09:04:05.575Z,38.20
2018-11-23T09:06:32.997Z,37.23
2018-11-23T09:09:00.398Z,37.47
2018-11-23T09:11:31.114Z,36.47
2018-11-23T09:13:58.509Z,36.63
2018-11-23T09:16:26.049Z,33.40
2018-11-23T09:18:53.450Z,31.53
2018-11-23T09:21:20.879Z,30.10
2018-11-23T09:23:48.278Z,27.70
2018-11-23T09:26:15.699Z,28.93
2018-11-23T09:28:43.090Z,29.47
2018-11-23T09:31:10.530Z,30.87
2018-11-23T09:33:37.931Z,28.87
2018-11-23T09:36:05.371Z,28.93
2018-11-23T09:38:32.774Z,30.57
2018-11-23T09:41:00.201Z,30.13
2018-11-23T09:43:27.585Z,31.00
2018-11-23T09:45:54.993Z,29.17
2018-11-23T09:48:22.385Z,29.67
2018-11-23T09:50:49.797Z,30.23
2018-11-23T09:53:17.205Z,28.73
2018-11-23T09:55:44.613Z,29.17
2018-11-23T09:58:12.069Z,29.00
2018-11-23T10:00:39.486Z,28.30
2018-11-23T10:03:07.219Z,27.93
2018-11-23T10:08:04.906Z,27.33
2018-11-23T10:10:32.365Z,27.27
2018-11-23T10:12:59.758Z,27.03
2018-11-23T10:15:28.427Z,28.07
2018-11-23T10:17:55.849Z,25.80
2018-11-23T10:20:24.558Z,26.90
2018-11-23T10:22:51.970Z,27.57
2018-11-23T10:25:21.711Z,26.57
2018-11-23T10:27:49.153Z,27.17
2018-11-23T10:30:18.151Z,25.97
2018-11-23T10:32:46.558Z,27.73
2018-11-23T10:35:13.975Z,27.70
2018-11-23T10:37:42.179Z,27.10
2018-11-23T10:40:13.090Z,27.03
2018-11-23T10:42:40.889Z,27.00
2018-11-23T10:45:14.050Z,27.33
2018-11-23T10:47:41.482Z,26.93
2018-11-23T10:50:11.906Z,26.57
2018-11-23T10:52:39.350Z,26.80
2018-11-23T10:55:10.842Z,27.70
2018-11-23T10:57:38.298Z,26.93
2018-11-23T11:00:12.778Z,25.60
2018-11-23T11:02:42.372Z,28.37
2018-11-23T11:05:15.429Z,27.50
2018-11-23T11:07:42.879Z,26.90
2018-11-23T11:10:10.283Z,25.70
2018-11-23T11:12:37.763Z,27.30
2018-11-23T11:15:06.002Z,27.30
2018-11-23T11:17:33.414Z,26.83
2018-11-23T11:20:00.801Z,27.70
2018-11-23T11:22:28.206Z,26.60
2018-11-23T11:24:55.598Z,26.33
2018-11-23T11:27:23.030Z,26.97
2018-11-23T11:29:50.440Z,29.33
2018-11-23T11:32:17.866Z,27.47
2018-11-23T11:34:45.309Z,26.97
2018-11-23T11:37:12.709Z,27.07
2018-11-23T11:39:40.115Z,26.93
2018-11-23T11:42:07.813Z,28.17
2018-11-23T11:44:35.205Z,26.57
2018-11-23T11:47:02.620Z,28.33
2018-11-23T11:49:30.046Z,26.80
2018-11-23T11:51:57.469Z,26.23
2018-11-23T11:54:24.878Z,27.90
2018-11-23T11:56:52.285Z,26.77
2018-11-23T11:59:19.674Z,27.87
2018-11-23T12:01:47.126Z,26.97
2018-11-23T12:04:14.527Z,27.90
2018-11-23T12:06:41.950Z,27.27
2018-11-23T12:09:10.410Z,26.07
2018-11-23T12:11:37.862Z,27.07
2018-11-23T12:14:05.353Z,28.10
2018-11-23T12:16:32.773Z,27.00
2018-11-23T12:19:00.174Z,27.20
2018-11-23T12:21:27.606Z,28.60
2018-11-23T12:23:55.005Z,28.43
2018-11-23T12:26:22.422Z,28.13
2018-11-23T12:28:49.857Z,28.13
2018-11-23T12:31:17.262Z,27.43
2018-11-23T12:33:44.758Z,28.60
2018-11-23T12:36:12.183Z,28.13
2018-11-23T12:38:43.034Z,30.70
2018-11-23T12:41:07.027Z,28.97
2018-11-23T12:43:34.459Z,27.83
2018-11-23T12:46:01.865Z,28.70
2018-11-23T12:48:29.289Z,28.03
2018-11-23T12:50:56.702Z,27.57
2018-11-23T12:53:24.138Z,29.50
2018-11-23T12:55:51.574Z,30.10
2018-11-23T12:58:19.022Z,28.07
2018-11-23T13:00:46.429Z,28.47
2018-11-23T13:03:13.877Z,28.83
2018-11-23T13:05:41.270Z,29.70
2018-11-23T13:08:08.722Z,28.17
2018-11-23T13:10:36.140Z,27.60
2018-11-23T13:13:03.911Z,28.87
2018-11-23T13:15:31.317Z,28.90
2018-11-23T13:17:59.325Z,28.33
2018-11-23T13:20:26.780Z,29.57
2018-11-23T13:22:54.217Z,29.53
2018-11-23T13:25:24.370Z,29.33
2018-11-23T13:27:51.867Z,28.77
2018-11-23T13:30:22.114Z,31.80
2018-11-23T13:32:49.574Z,28.87
2018-11-23T13:35:17.739Z,28.50
2018-11-23T13:37:45.182Z,30.07
2018-11-23T13:40:14.702Z,29.47
2018-11-23T13:42:42.472Z,31.00
2018-11-23T13:45:11.790Z,28.33
2018-11-23T13:47:39.256Z,27.63
2018-11-23T13:50:08.710Z,30.53
2018-11-23T13:52:36.146Z,29.00
2018-11-23T13:55:04.082Z,28.83
2018-11-23T13:57:31.516Z,29.43
2018-11-23T13:59:58.937Z,29.53
2018-11-23T14:02:26.371Z,28.00
2018-11-23T14:04:53.821Z,30.23
2018-11-23T14:07:21.671Z,29.13
2018-11-23T14:09:49.087Z,27.87
2018-11-23T14:12:16.521Z,29.53
2018-11-23T14:14:44.093Z,28.77
2018-11-23T14:17:11.527Z,29.10
2018-11-23T14:19:38.936Z,28.17
2018-11-23T14:22:06.486Z,27.30
2018-11-23T14:24:39.797Z,26.93
2018-11-23T14:27:07.229Z,27.37
2018-11-23T14:29:34.642Z,26.37
2018-11-23T14:32:02.067Z,27.90
2018-11-23T14:34:29.496Z,27.57
2018-11-23T14:36:57.110Z,27.80
2018-11-23T14:39:24.533Z,27.17
2018-11-23T14:41:51.956Z,27.40
2018-11-23T14:44:19.374Z,28.23
2018-11-23T14:46:46.841Z,27.10
2018-11-23T14:49:14.293Z,28.00
2018-11-23T14:51:41.726Z,26.27
2018-11-23T14:54:09.178Z,27.17
2018-11-23T14:56:36.621Z,29.47
2018-11-23T14:59:04.242Z,30.00
2018-11-23T15:01:31.702Z,30.10
2018-11-23T15:03:59.101Z,28.63
2018-11-23T15:06:26.522Z,28.30
2018-11-23T15:08:53.934Z,29.13
2018-11-23T15:11:21.377Z,31.40
2018-11-23T15:13:48.833Z,31.40
2018-11-23T15:16:16.237Z,30.27
2018-11-23T15:18:43.678Z,31.80
2018-11-23T15:21:11.090Z,31.87
2018-11-23T15:23:38.501Z,32.73
2018-11-23T15:28:40.327Z,32.27
2018-11-23T15:31:07.778Z,33.67
2018-11-23T15:33:35.264Z,32.57
2018-11-23T15:36:02.763Z,34.93
2018-11-23T15:38:30.217Z,34.60
2018-11-23T15:40:57.654Z,34.07
2018-11-23T15:43:25.073Z,33.83
2018-11-23T15:45:52.474Z,35.37
2018-11-23T15:48:19.907Z,34.23
2018-11-23T15:50:47.310Z,34.23
2018-11-23T15:53:15.605Z,34.07
2018-11-23T15:55:43.078Z,34.10
2018-11-23T15:58:12.054Z,33.90
2018-11-23T16:00:40.923Z,45.73
2018-11-23T16:03:09.834Z,44.30
2018-11-23T16:05:37.594Z,36.57
2018-11-23T16:08:07.054Z,45.93
2018-11-23T16:10:35.679Z,41.73
2018-11-23T16:13:10.745Z,46.20
2018-11-23T16:15:32.009Z,44.30
2018-11-23T16:18:00.120Z,37.90
2018-11-23T16:20:30.107Z,40.00
2018-11-23T16:23:00.043Z,39.50
2018-11-23T16:25:27.530Z,37.83
2018-11-23T16:27:57.210Z,44.40
2018-11-23T16:30:28.670Z,40.33
2018-11-23T16:32:57.246Z,55.17
2018-11-23T16:35:26.103Z,43.17
2018-11-23T16:37:54.605Z,51.03
2018-11-23T16:40:24.526Z,45.60
2018-11-23T16:42:52.505Z,38.37
2018-11-23T16:45:22.067Z,41.37
2018-11-23T16:47:49.838Z,51.57
2018-11-23T16:50:17.329Z,47.90
2018-11-23T16:52:45.892Z,52.67
2018-11-23T16:55:14.373Z,53.17
2018-11-23T16:57:43.143Z,41.33
2018-11-23T17:00:14.014Z,42.00
2018-11-23T17:02:41.946Z,67.33
2018-11-23T17:05:10.149Z,76.83
2018-11-23T17:07:37.549Z,107.40
2018-11-23T17:10:07.235Z,99.03
2018-11-23T17:12:34.699Z,118.77
2018-11-23T17:15:02.175Z,64.40
2018-11-23T17:17:29.574Z,98.23
2018-11-23T17:19:57.009Z,118.17
2018-11-23T17:22:24.501Z,41.53
2018-11-23T17:24:52.051Z,27.20
2018-11-23T17:27:19.514Z,31.23
2018-11-23T17:29:46.941Z,33.40
2018-11-23T17:32:14.346Z,30.10
2018-11-23T17:34:41.774Z,30.63
2018-11-23T17:37:09.180Z,32.07
2018-11-23T17:39:36.739Z,39.33
2018-11-23T17:42:04.506Z,30.90
2018-11-23T17:44:32.038Z,31.80
2018-11-23T17:46:59.438Z,26.07
2018-11-23T17:49:26.905Z,25.83
2018-11-23T17:51:54.300Z,27.37
2018-11-23T17:54:21.746Z,24.83
2018-11-23T17:56:49.140Z,31.73
2018-11-23T17:59:16.579Z,27.57
2018-11-23T18:01:43.982Z,25.93
2018-11-23T18:04:11.417Z,35.37
2018-11-23T18:06:38.811Z,25.13
2018-11-23T18:09:06.736Z,23.90
2018-11-23T18:11:34.175Z,24.30
2018-11-23T18:14:01.585Z,26.47
2018-11-23T18:16:29.044Z,23.77
2018-11-23T18:18:56.451Z,22.30
2018-11-23T18:21:24.879Z,20.87
2018-11-23T18:23:51.342Z,22.33
2018-11-23T18:26:18.753Z,26.23
2018-11-23T18:28:52.917Z,22.53
2018-11-23T18:31:20.381Z,23.37
2018-11-23T18:33:47.902Z,22.17
2018-11-23T18:36:15.271Z,20.57
2018-11-23T18:38:42.725Z,21.83
2018-11-23T18:41:10.153Z,21.13
2018-11-23T18:43:37.605Z,22.10
2018-11-23T18:46:05.195Z,21.27
2018-11-23T18:48:32.584Z,19.83
2018-11-23T18:51:00.062Z,22.27
2018-11-23T18:53:27.474Z,20.77
2018-11-23T18:55:54.966Z,19.97
2018-11-23T18:58:22.370Z,21.03
2018-11-23T19:00:49.789Z,21.20
2018-11-23T19:03:17.201Z,20.57
2018-11-23T19:05:44.650Z,19.47
2018-11-23T19:08:12.055Z,20.93
2018-11-23T19:10:39.554Z,24.73
2018-11-23T19:13:06.946Z,35.60
2018-11-23T19:15:34.374Z,28.03
2018-11-23T19:18:01.811Z,24.90
2018-11-23T19:20:29.315Z,21.07
2018-11-23T19:22:56.817Z,21.00
2018-11-23T19:27:58.497Z,26.00
2018-11-23T19:30:28.818Z,22.40
2018-11-23T19:32:53.399Z,20.83
2018-11-23T19:35:20.812Z,24.47
2018-11-23T19:37:48.282Z,22.00
2018-11-23T19:40:15.741Z,29.53
2018-11-23T19:42:44.002Z,28.53
2018-11-23T19:45:12.482Z,22.40
2018-11-23T19:47:39.937Z,27.40
2018-11-23T19:50:09.453Z,21.53
2018-11-23T19:52:36.877Z,20.63
2018-11-23T19:55:04.559Z,20.83
2018-11-23T19:57:32.013Z,22.17
2018-11-23T19:59:59.410Z,20.97
2018-11-23T20:02:26.838Z,20.27
2018-11-23T20:04:54.264Z,22.53
2018-11-23T20:07:21.723Z,23.00
2018-11-23T20:09:49.342Z,22.57
2018-11-23T20:12:16.791Z,23.07
2018-11-23T20:14:44.196Z,22.10
2018-11-23T20:17:11.622Z,21.13
2018-11-23T20:19:39.026Z,20.33
2018-11-23T20:22:06.509Z,22.23
2018-11-23T20:24:33.901Z,23.03
2018-11-23T20:27:01.322Z,24.30
2018-11-23T20:29:28.731Z,23.73
2018-11-23T20:31:56.226Z,23.17
2018-11-23T20:34:23.630Z,23.93
2018-11-23T20:36:51.023Z,25.23
2018-11-23T20:39:18.466Z,23.03
2018-11-23T20:41:45.866Z,23.70
2018-11-23T20:44:13.348Z,24.63
2018-11-23T20:46:40.754Z,24.97
2018-11-23T20:49:08.183Z,25.93
2018-11-23T20:51:35.610Z,24.60
2018-11-23T20:54:03.086Z,25.40
2018-11-23T20:56:30.484Z,24.33
2018-11-23T20:58:57.905Z,23.27
2018-11-23T21:01:25.318Z,24.33
2018-11-23T21:03:52.795Z,25.00
2018-11-23T21:06:20.226Z,24.23
2018-11-23T21:08:47.659Z,23.93
2018-11-23T21:11:15.095Z,25.17
2018-11-23T21:13:42.505Z,26.23
2018-11-23T21:16:09.912Z,27.50
2018-11-23T21:18:37.341Z,27.87
2018-11-23T21:21:05.006Z,31.27
2018-11-23T21:23:32.431Z,27.07
2018-11-23T21:25:59.842Z,27.63
2018-11-23T21:28:27.290Z,29.37
2018-11-23T21:30:54.726Z,27.87
2018-11-23T21:33:22.167Z,30.00
2018-11-23T21:35:49.567Z,27.43
2018-11-23T21:38:16.986Z,26.37
2018-11-23T21:40:44.613Z,27.53
2018-11-23T21:43:11.866Z,27.93
2018-11-23T21:45:39.318Z,30.40
2018-11-23T21:48:06.750Z,26.80
2018-11-23T21:50:34.158Z,26.23
2018-11-23T21:53:01.638Z,27.87
2018-11-23T21:55:29.066Z,26.90
2018-11-23T21:57:56.504Z,29.40
2018-11-23T22:00:24.003Z,27.10
2018-11-23T22:02:51.440Z,28.03
2018-11-23T22:05:18.908Z,27.07
2018-11-23T22:07:46.304Z,27.23
2018-11-23T22:10:15.817Z,26.60
2018-11-23T22:12:43.319Z,27.77
2018-11-23T22:15:26.492Z,26.57
2018-11-23T22:17:55.037Z,27.93
2018-11-23T22:20:23.034Z,25.83
2018-11-23T22:22:50.423Z,28.17
2018-11-23T22:25:18.841Z,25.10
2018-11-23T22:27:46.270Z,28.77
2018-11-23T22:30:16.733Z,27.80
2018-11-23T22:32:44.153Z,29.17
2018-11-23T22:35:12.166Z,30.70
2018-11-23T22:37:39.594Z,30.00
2018-11-23T22:40:11.495Z,29.77
2018-11-23T22:42:39.218Z,31.10
2018-11-23T22:45:09.234Z,31.37
2018-11-23T22:47:36.658Z,31.87
2018-11-23T22:50:05.958Z,32.60
2018-11-23T22:52:33.357Z,31.93
2018-11-23T22:55:00.802Z,31.30
2018-11-23T22:57:28.202Z,32.60
2018-11-23T22:59:55.634Z,33.60
2018-11-23T23:02:23.039Z,33.00
2018-11-23T23:04:50.466Z,31.87
2018-11-23T23:07:17.863Z,29.97
2018-11-23T23:09:45.278Z,28.87
2018-11-23T23:12:12.682Z,30.40
2018-11-23T23:14:40.112Z,31.37
2018-11-23T23:17:07.550Z,29.97
2018-11-23T23:19:34.981Z,31.47
2018-11-23T23:22:02.390Z,32.23
2018-11-23T23:24:29.806Z,31.60
2018-11-23T23:26:57.209Z,30.67
2018-11-23T23:29:24.626Z,31.17
2018-11-23T23:31:52.487Z,34.67
2018-11-23T23:34:19.926Z,33.37
2018-11-23T23:36:47.345Z,33.43
2018-11-23T23:39:14.750Z,30.80
2018-11-23T23:41:42.182Z,33.60
2018-11-23T23:44:09.648Z,33.97
2018-11-23T23:46:37.062Z,34.13
2018-11-23T23:49:04.526Z,33.63
2018-11-23T23:51:31.942Z,35.07
2018-11-23T23:53:59.342Z,32.60
2018-11-23T23:56:26.754Z,31.90
2018-11-23T23:58:54.154Z,32.53
